Time;durP1;ratioP1;P1;durP2;ratioP2;P2;SDS_P1;SDS_P2;PMS_P1;PMS_P2;Temp;Humidity;BMP_temperature;BMP_pressure;BME280_temperature;BME280_humidity;BME280_pressure;Samples;Min_cycle;Max_cycle;Signal;HPM_P1;HPM_P2
2022/03/12 06:10:33;;;;;;;36.77;19.60;;;;;;;-5.20;100.00;102176.28;15293323;19;20470;-55
2022/03/12 07:00:18;;;;;;;31.07;18.57;;;;;;;-1.52;100.00;102184.50;15268011;19;20489;-54
2022/03/12 07:20:14;;;;;;;33.57;18.67;;;;;;;0.03;100.00;102196.84;15284679;19;20500;-52
2022/03/12 07:35:17;;;;;;;25.37;14.67;;;;;;;0.54;100.00;102201.66;15304701;19;20518;-54
2022/03/12 07:45:20;;;;;;;24.90;15.27;;;;;;;0.76;100.00;102207.91;15276028;19;20446;-54
2022/03/12 08:00:18;;;;;;;19.90;12.63;;;;;;;1.01;100.00;102203.69;15145256;19;2944946;-52
2022/03/12 08:05:24;;;;;;;20.23;11.90;;;;;;;1.25;100.00;102213.44;15288730;19;20788;-52
2022/03/12 08:35:20;;;;;;;10.23;7.10;;;;;;;2.97;94.77;102193.34;15290263;19;20509;-52
2022/03/12 08:40:25;;;;;;;12.07;7.73;;;;;;;3.19;91.58;102202.94;15295207;19;20150;-51
2022/03/12 08:50:28;;;;;;;6.30;4.10;;;;;;;3.53;75.25;102197.50;15270513;19;20530;-52
2022/03/12 08:55:32;;;;;;;5.20;3.93;;;;;;;3.60;71.53;102200.13;15286269;19;20165;-52
2022/03/12 09:00:38;;;;;;;5.23;3.50;;;;;;;3.71;71.00;102192.13;15303376;19;20136;-51
2022/03/12 09:05:43;;;;;;;5.20;3.70;;;;;;;3.92;69.69;102199.91;15308735;19;20148;-53
2022/03/12 09:40:29;;;;;;;9.13;6.13;;;;;;;4.81;61.57;102189.44;15277929;19;20460;-53
2022/03/12 10:00:19;;;;;;;9.33;6.33;;;;;;;5.20;59.71;102158.97;15117499;19;2948827;-51
2022/03/12 10:10:24;;;;;;;9.07;6.43;;;;;;;5.27;56.56;102150.09;15293863;19;20563;-52
2022/03/12 10:20:26;;;;;;;9.23;6.50;;;;;;;5.43;57.95;102129.59;15275796;19;20524;-52
2022/03/12 10:30:28;;;;;;;10.23;5.80;;;;;;;5.58;54.27;102117.88;15292723;19;20513;-53
2022/03/12 10:45:28;;;;;;;6.30;5.20;;;;;;;5.75;53.56;102097.31;15128285;19;2944062;-53
2022/03/12 11:00:27;;;;;;;8.53;4.70;;;;;;;5.93;51.83;102086.41;15147697;19;2940665;-53
2022/03/12 11:10:33;;;;;;;5.93;4.50;;;;;;;6.10;53.30;102089.66;15271635;19;20935;-53
2022/03/12 11:35:27;;;;;;;7.80;5.50;;;;;;;6.63;51.76;102066.59;15295996;19;20470;-56
2022/03/12 11:40:33;;;;;;;9.43;6.50;;;;;;;6.63;49.47;102074.53;15301408;19;20725;-55
2022/03/12 11:45:38;;;;;;;8.40;6.77;;;;;;;6.61;49.01;102080.78;15322757;19;20168;-53
2022/03/12 11:50:43;;;;;;;8.90;6.43;;;;;;;6.55;48.99;102076.47;15321057;19;20189;-55
2022/03/12 11:55:53;;;;;;;34.83;9.00;;;;;;;6.58;49.17;102064.91;15331085;19;20154;-53
2022/03/12 12:00:57;;;;;;;11.57;6.63;;;;;;;6.67;51.23;102062.94;15350706;19;20457;-53
2022/03/12 12:06:05;;;;;;;6.50;5.47;;;;;;;6.72;50.13;102050.47;15350461;19;20146;-53
2022/03/12 12:11:15;;;;;;;9.40;6.43;;;;;;;6.68;46.02;102027.56;15336489;19;20151;-53
2022/03/12 12:16:22;;;;;;;7.40;5.63;;;;;;;6.81;48.18;102023.75;15320865;19;20283;-53
2022/03/12 12:26:26;;;;;;;6.10;4.80;;;;;;;7.16;48.05;102008.81;15347097;19;20441;-53
2022/03/12 12:41:22;;;;;;;7.47;5.77;;;;;;;7.18;44.16;101997.25;15169893;19;2932875;-53
2022/03/12 12:51:26;;;;;;;6.83;5.70;;;;;;;7.26;45.65;101994.41;15303668;19;20477;-54
2022/03/12 13:01:32;;;;;;;7.03;5.40;;;;;;;7.33;46.10;101974.78;15274413;19;20514;-55
2022/03/12 13:12:03;;;;;;;9.07;4.87;;;;;;;7.34;44.29;101952.63;15292992;19;21011;-53
2022/03/12 13:22:07;;;;;;;7.17;5.37;;;;;;;7.37;44.22;101939.25;15270180;19;20479;-53
2022/03/12 13:27:32;;;;;;;6.77;5.27;;;;;;;7.51;46.56;101937.09;15299427;19;20188;-53
2022/03/12 13:42:30;;;;;;;6.73;5.27;;;;;;;7.76;43.57;101926.72;15174139;19;2926058;-54
2022/03/12 13:47:36;;;;;;;7.87;5.33;;;;;;;7.73;43.25;101921.47;15323153;19;20157;-53
2022/03/12 13:52:40;;;;;;;5.63;4.83;;;;;;;7.69;42.48;101929.59;15347404;19;20151;-53
2022/03/12 13:57:45;;;;;;;6.83;4.73;;;;;;;7.71;43.52;101917.13;15349828;19;20160;-54
2022/03/12 14:02:56;;;;;;;7.37;5.53;;;;;;;7.81;44.20;101918.63;15347269;19;20147;-52
2022/03/12 14:17:57;;;;;;;6.40;5.07;;;;;;;7.70;42.60;101902.09;15347689;19;20460;-53
2022/03/12 14:28:00;;;;;;;6.87;5.20;;;;;;;7.67;43.31;101894.19;15323684;19;20467;-52
2022/03/12 14:33:06;;;;;;;8.47;5.80;;;;;;;7.64;42.95;101886.31;15331631;19;20636;-53
2022/03/12 14:38:11;;;;;;;5.97;4.73;;;;;;;7.63;43.02;101880.13;15350456;19;20151;-52
2022/03/12 14:43:16;;;;;;;7.33;4.93;;;;;;;7.64;42.86;101879.22;15352333;19;20144;-52
2022/03/12 14:48:20;;;;;;;7.77;5.20;;;;;;;7.58;42.18;101874.94;15343197;19;21031;-52
2022/03/12 14:58:23;;;;;;;5.47;4.70;;;;;;;7.48;42.62;101867.28;15341481;19;20490;-52
2022/03/12 15:03:27;;;;;;;6.03;4.43;;;;;;;7.38;42.62;101856.00;15353362;19;20167;-53
2022/03/12 15:08:36;;;;;;;5.43;4.43;;;;;;;7.30;42.48;101858.00;15352052;19;20150;-51
2022/03/12 15:18:39;;;;;;;7.40;5.10;;;;;;;7.12;41.48;101839.91;15328786;19;20498;-52
2022/03/12 15:23:47;;;;;;;5.67;4.13;;;;;;;6.97;42.07;101848.25;15351771;19;20192;-53
2022/03/12 15:38:50;;;;;;;5.10;4.03;;;;;;;6.46;41.75;101840.63;15316578;19;20456;-52
2022/03/12 15:43:57;;;;;;;6.03;4.77;;;;;;;6.24;41.31;101839.38;15347862;19;20601;-52
2022/03/12 16:08:50;;;;;;;6.43;4.67;;;;;;;5.19;41.72;101823.78;15305550;19;21123;-52
2022/03/12 16:13:55;;;;;;;6.17;4.30;;;;;;;4.91;41.84;101825.16;15326467;19;20152;-51
2022/03/12 16:23:58;;;;;;;6.13;4.30;;;;;;;4.53;42.03;101809.91;15314986;19;20455;-52
2022/03/12 16:38:55;;;;;;;8.47;5.47;;;;;;;3.85;44.52;101810.00;15197250;19;2929293;-51
2022/03/12 16:53:51;;;;;;;9.33;5.63;;;;;;;2.84;47.24;101790.88;15347165;19;20495;-52
2022/03/12 17:33:36;;;;;;;26.60;14.37;;;;;;;1.67;67.80;101786.41;15321979;19;20846;-52
2022/03/12 17:38:41;;;;;;;67.70;28.23;;;;;;;1.45;65.70;101788.22;15339213;19;20644;-52
2022/03/12 18:03:37;;;;;;;43.10;24.23;;;;;;;0.79;66.43;101771.75;15300243;19;20515;-51
2022/03/12 18:23:37;;;;;;;92.03;41.30;;;;;;;0.16;84.68;101755.09;15299080;19;20470;-53
2022/03/12 19:43:10;;;;;;;60.53;33.53;;;;;;;-0.70;85.29;101766.19;15284692;19;20868;-52
2022/03/12 19:53:13;;;;;;;61.70;29.00;;;;;;;-1.16;90.76;101771.16;15309598;19;20460;-52
2022/03/12 20:33:00;;;;;;;43.17;22.90;;;;;;;-2.15;100.00;101766.81;15326101;19;20504;-52
2022/03/12 20:43:00;;;;;;;303.90;115.03;;;;;;;-2.27;100.00;101766.66;15188734;19;2933432;-51
2022/03/12 21:17:54;;;;;;;69.50;28.87;;;;;;;-3.26;100.00;101753.19;15288345;19;21062;-52
2022/03/12 21:42:51;;;;;;;62.97;31.33;;;;;;;-3.48;100.00;101732.84;15335893;19;20509;-51
2022/03/12 21:47:56;;;;;;;62.87;29.80;;;;;;;-3.46;100.00;101728.53;15343598;19;20608;-51
2022/03/12 21:53:01;;;;;;;61.33;29.03;;;;;;;-3.49;100.00;101728.47;15340342;19;20157;-51
2022/03/12 22:42:41;;;;;;;63.00;26.27;;;;;;;-3.81;100.00;101714.03;15312172;19;21771;-51
2022/03/12 22:52:41;;;;;;;105.60;36.43;;;;;;;-3.78;100.00;101708.88;15194409;19;2928607;-51
2022/03/12 23:02:44;;;;;;;74.83;32.80;;;;;;;-3.81;100.00;101704.50;15329592;19;21268;-52
2022/03/12 23:42:47;;;;;;;157.87;58.17;;;;;;;-3.97;100.00;101697.25;15347642;19;20474;-52
